Time;durP1;ratioP1;P1;durP2;ratioP2;P2;SDS_P1;SDS_P2;PMS_P1;PMS_P2;Temp;Humidity;BMP_temperature;BMP_pressure;BME280_temperature;BME280_humidity;BME280_pressure;Samples;Min_cycle;Max_cycle;Signal;HPM_P1;HPM_P2
2021/03/24 05:03:46;;;;;;;47.33;33.85;;;;;;;-142.70;100.00;60390.16;6179058;23;20099;-76
2021/03/24 05:07:16;;;;;;;43.28;33.00;;;;;;;-142.70;100.00;60390.16;6180624;23;20170;-76
2021/03/24 05:10:43;;;;;;;46.38;34.92;;;;;;;-142.70;100.00;60390.16;6179606;23;20005;-75
2021/03/24 05:14:22;;;;;;;47.70;33.60;;;;;;;-142.70;92.21;73431.25;6179126;23;20015;-76
2021/03/24 05:17:46;;;;;;;41.38;30.98;;;;;;;-142.70;100.00;60390.16;6178842;23;20415;-75
2021/03/24 05:21:39;;;;;;;43.92;31.08;;;;;;;-142.70;100.00;60390.16;6197105;23;20352;-77
2021/03/24 05:25:12;;;;;;;52.55;36.78;;;;;;;-142.70;100.00;60390.16;6211733;23;20032;-77
2021/03/24 05:28:53;;;;;;;49.10;35.78;;;;;;;-142.70;100.00;60390.16;6200387;23;20457;-79
2021/03/24 05:32:31;;;;;;;49.50;38.17;;;;;;;-142.70;100.00;60390.16;6195588;23;20000;-76
2021/03/24 05:35:58;;;;;;;58.60;39.63;;;;;;;-142.70;100.00;60390.16;6197724;23;20000;-77
2021/03/24 05:39:36;;;;;;;41.05;30.63;;;;;;;-142.70;100.00;60390.16;6197380;23;20009;-76
2021/03/24 05:43:17;;;;;;;50.92;34.53;;;;;;;-142.70;100.00;60390.16;6196878;23;20067;-76
2021/03/24 05:47:03;;;;;;;40.42;30.23;;;;;;;-142.70;100.00;60390.16;6209299;23;20092;-76
2021/03/24 05:50:50;;;;;;;40.55;31.70;;;;;;;-142.70;100.00;60390.16;6211003;23;20015;-76
2021/03/24 05:54:32;;;;;;;34.30;24.63;;;;;;;-142.70;100.00;60390.16;6184742;23;20379;-78
2021/03/24 05:58:05;;;;;;;22.58;19.95;;;;;;;-142.70;100.00;60390.16;6208616;23;20027;-76
2021/03/24 06:00:48;;;;;;;29.98;23.75;;;;;;;0.39;92.21;94212.13;6194922;23;20001;-75
2021/03/24 06:03:13;;;;;;;28.10;23.55;;;;;;;1.55;88.76;94341.47;6162529;23;20465;-76
2021/03/24 06:06:43;;;;;;;22.42;18.88;;;;;;;-142.70;100.00;60390.16;6208469;23;20012;-76
2021/03/24 06:10:13;;;;;;;12.65;11.48;;;;;;;-142.70;100.00;60390.16;6208989;23;20009;-75
2021/03/24 06:14:21;;;;;;;5.22;4.82;;;;;;;-142.70;100.00;60390.16;6210128;23;20008;-75
2021/03/24 06:18:21;;;;;;;4.97;4.55;;;;;;;-142.70;100.00;60390.16;6147138;23;20012;-77
2021/03/24 06:22:21;;;;;;;2.40;2.13;;;;;;;-142.70;100.00;60390.16;6209811;23;20008;-77
2021/03/24 06:25:44;;;;;;;0.98;0.90;;;;;;;-142.70;100.00;60390.16;6210542;23;20004;-75
2021/03/24 06:29:08;;;;;;;0.30;0.30;;;;;;;-142.70;100.00;60390.16;6210445;23;20450;-75
2021/03/24 06:32:57;;;;;;;0.20;0.20;;;;;;;-142.70;100.00;60390.16;6206725;23;20442;-74
2021/03/24 06:37:15;;;;;;;0.45;0.30;;;;;;;-142.70;100.00;60390.16;6219751;23;20023;-74
2021/03/24 06:41:01;;;;;;;0.60;0.55;;;;;;;-142.70;100.00;60390.16;6145320;23;20013;-74
2021/03/24 06:44:33;;;;;;;1.02;0.90;;;;;;;-142.70;100.00;60390.16;6207195;23;20080;-74
2021/03/24 06:48:14;;;;;;;0.40;0.40;;;;;;;-142.70;100.00;60390.16;6208316;23;20482;-77
2021/03/24 06:52:12;;;;;;;0.82;0.40;;;;;;;-142.70;100.00;60390.16;6209483;23;20035;-75
2021/03/24 06:55:45;;;;;;;0.90;0.32;;;;;;;-142.70;100.00;60390.16;6211757;23;20557;-76
2021/03/24 06:59:17;;;;;;;1.35;0.30;;;;;;;-142.70;100.00;60390.16;6208860;23;20012;-75
2021/03/24 07:02:58;;;;;;;0.50;0.43;;;;;;;-142.70;100.00;60390.16;6208082;23;20017;-76
2021/03/24 07:06:31;;;;;;;0.50;0.50;;;;;;;-142.70;100.00;60390.16;6207397;23;20008;-78
2021/03/24 07:10:19;;;;;;;0.70;0.40;;;;;;;-142.70;100.00;60390.16;6214071;23;20005;-73
2021/03/24 07:14:17;;;;;;;0.60;0.40;;;;;;;-142.70;100.00;60390.16;6211192;23;20040;-76
2021/03/24 07:17:55;;;;;;;0.40;0.38;;;;;;;-142.70;100.00;60390.16;6211529;23;20027;-77
2021/03/24 07:21:59;;;;;;;0.57;0.40;;;;;;;-142.70;100.00;60390.16;6209270;23;20417;-77
2021/03/24 07:25:46;;;;;;;0.70;0.43;;;;;;;-142.70;100.00;60390.16;6207693;23;20095;-74
2021/03/24 07:29:45;;;;;;;1.15;0.50;;;;;;;-142.70;100.00;60390.16;6219857;23;20005;-74
2021/03/24 07:33:30;;;;;;;0.43;0.43;;;;;;;-142.70;100.00;60390.16;6223472;23;20012;-74
2021/03/24 07:37:07;;;;;;;0.82;0.40;;;;;;;-142.70;100.00;60390.16;6209831;23;20000;-74
2021/03/24 07:40:45;;;;;;;0.45;0.45;;;;;;;-142.70;100.00;60390.16;6211168;23;20013;-74
2021/03/24 07:44:18;;;;;;;1.70;1.13;;;;;;;-142.70;100.00;60390.16;6209837;23;20047;-74
2021/03/24 07:47:51;;;;;;;0.68;0.50;;;;;;;-142.70;100.00;60390.16;6185154;23;20439;-76
2021/03/24 07:51:23;;;;;;;0.85;0.75;;;;;;;-142.70;100.00;60390.16;6209563;23;20390;-77
2021/03/24 07:54:55;;;;;;;0.60;0.60;;;;;;;-142.70;100.00;60390.16;6210227;23;20083;-75
2021/03/24 07:58:33;;;;;;;0.60;0.60;;;;;;;-142.70;100.00;60390.16;6207064;23;19996;-74
2021/03/24 08:02:31;;;;;;;0.82;0.70;;;;;;;-142.70;88.76;60390.16;6208501;23;20019;-77
2021/03/24 08:06:22;;;;;;;1.33;1.23;;;;;;;-142.70;100.00;60390.16;6146721;23;20088;-76
2021/03/24 08:10:00;;;;;;;1.35;0.88;;;;;;;-142.70;100.00;60390.16;6149567;23;20441;-77
2021/03/24 08:13:35;;;;;;;1.58;0.85;;;;;;;-142.70;88.76;94341.47;6208466;23;20434;-77
2021/03/24 08:17:01;;;;;;;0.93;0.85;;;;;;;-142.70;100.00;60390.16;6232156;23;20470;-77
2021/03/24 08:19:49;;;;;;;1.00;0.90;;;;;;;1.55;88.76;94341.47;6219072;23;20000;-77
2021/03/24 08:22:30;;;;;;;1.00;0.90;;;;;;;2.53;64.44;94604.53;6208805;23;20016;-77
2021/03/24 08:26:12;;;;;;;0.70;0.60;;;;;;;-142.70;nan;60390.16;6208482;23;20028;-77
2021/03/24 08:29:58;;;;;;;0.90;0.80;;;;;;;-142.70;100.00;60390.16;6208472;23;20386;-77
2021/03/24 08:33:52;;;;;;;1.20;1.10;;;;;;;-142.70;100.00;60390.16;6207007;23;20360;-78
2021/03/24 08:37:34;;;;;;;1.20;1.10;;;;;;;-142.70;100.00;60390.16;6206780;23;20004;-80
2021/03/24 08:41:29;;;;;;;1.45;0.80;;;;;;;-142.70;100.00;60390.16;6209280;23;20419;-78
2021/03/24 08:44:59;;;;;;;3.60;0.75;;;;;;;-142.70;100.00;60390.16;6214884;23;20008;-76
2021/03/24 08:48:40;;;;;;;;;;;;;;;-142.70;100.00;60390.16;6213933;23;20512;-79
2021/03/24 08:52:32;;;;;;;2.00;0.65;;;;;;;-142.70;100.00;60390.16;6182294;23;19958;-78
2021/03/24 08:56:19;;;;;;;1.08;0.85;;;;;;;-142.70;100.00;60390.16;6207827;23;20495;-78
2021/03/24 08:59:46;;;;;;;1.58;0.88;;;;;;;-142.70;100.00;60390.16;6209183;23;20004;-78
2021/03/24 09:03:35;;;;;;;1.25;0.77;;;;;;;-142.70;100.00;60390.16;6195465;23;20099;-78
2021/03/24 09:07:17;;;;;;;2.15;0.60;;;;;;;-142.70;100.00;60390.16;6210671;23;20362;-80
2021/03/24 09:10:45;;;;;;;1.02;0.60;;;;;;;-142.70;100.00;60390.16;6209608;23;20349;-76
2021/03/24 09:14:08;;;;;;;0.60;0.50;;;;;;;-142.70;42.53;60390.16;6220346;23;20083;-79
2021/03/24 09:17:37;;;;;;;0.75;0.55;;;;;;;-142.70;100.00;60390.16;6206257;23;20004;-77
2021/03/24 09:21:10;;;;;;;0.67;0.57;;;;;;;-142.70;100.00;60390.16;6207891;23;20052;-78
2021/03/24 09:24:38;;;;;;;0.90;0.50;;;;;;;-142.70;100.00;60390.16;6207960;23;20012;-77
2021/03/24 09:28:20;;;;;;;0.80;0.50;;;;;;;-142.70;100.00;60390.16;6208736;23;20005;-75
2021/03/24 09:32:16;;;;;;;1.40;0.57;;;;;;;-142.70;100.00;60390.16;6208128;23;20016;-75
2021/03/24 09:35:52;;;;;;;1.52;1.00;;;;;;;-142.70;100.00;60390.16;6206027;23;20005;-75
2021/03/24 09:39:23;;;;;;;1.05;0.75;;;;;;;-142.70;100.00;60390.16;6205014;23;20430;-75
2021/03/24 09:42:50;;;;;;;1.88;0.82;;;;;;;-142.70;100.00;60390.16;6205435;23;20000;-76
2021/03/24 09:45:36;;;;;;;1.05;0.50;;;;;;;2.53;64.44;94604.53;6194288;23;20075;-78
2021/03/24 09:49:03;;;;;;;0.75;0.70;;;;;;;-142.70;100.00;60390.16;6210034;23;20076;-76
2021/03/24 09:52:47;;;;;;;1.17;0.60;;;;;;;-142.70;100.00;60390.16;6217376;23;20009;-76
2021/03/24 09:56:15;;;;;;;0.98;0.80;;;;;;;-142.70;100.00;60390.16;6205359;23;20013;-76
2021/03/24 10:00:16;;;;;;;1.05;0.85;;;;;;;-142.70;100.00;60390.16;6193464;23;20005;-76
2021/03/24 10:03:46;;;;;;;0.80;0.80;;;;;;;-142.70;100.00;60390.16;6206488;23;20446;-75
2021/03/24 10:07:31;;;;;;;0.95;0.80;;;;;;;-142.70;100.00;60390.16;6207114;23;20011;-77
2021/03/24 10:11:03;;;;;;;1.45;0.80;;;;;;;-142.70;100.00;60390.16;6197801;23;20005;-74
2021/03/24 10:14:33;;;;;;;1.05;0.80;;;;;;;-142.70;100.00;60390.16;6180491;23;20466;-76
2021/03/24 10:18:13;;;;;;;0.95;0.60;;;;;;;-142.70;100.00;60390.16;6206337;23;20420;-77
2021/03/24 10:21:43;;;;;;;0.68;0.60;;;;;;;-142.70;100.00;60390.16;6220288;23;20015;-77
2021/03/24 10:25:14;;;;;;;0.88;0.68;;;;;;;-142.70;100.00;60390.16;6208438;23;20460;-75
2021/03/24 10:29:02;;;;;;;0.88;0.68;;;;;;;-142.70;100.00;60390.16;6207069;23;20011;-75
2021/03/24 10:32:39;;;;;;;0.93;0.90;;;;;;;-142.70;100.00;60390.16;6191030;23;20008;-77
2021/03/24 10:36:26;;;;;;;1.88;0.73;;;;;;;-142.70;100.00;60390.16;6194287;23;20017;-77
2021/03/24 10:40:14;;;;;;;0.88;0.80;;;;;;;-142.70;100.00;60390.16;6220935;23;20009;-78
2021/03/24 10:43:43;;;;;;;1.08;0.70;;;;;;;-142.70;100.00;60390.16;6217632;23;20020;-77
2021/03/24 10:47:15;;;;;;;0.93;0.77;;;;;;;-142.70;100.00;60390.16;6218618;23;20008;-77
2021/03/24 10:50:59;;;;;;;0.75;0.65;;;;;;;-142.70;100.00;60390.16;6205604;23;20070;-78
2021/03/24 10:54:27;;;;;;;2.55;0.93;;;;;;;-142.70;100.00;60390.16;6220444;23;20007;-78
2021/03/24 10:58:03;;;;;;;0.88;0.75;;;;;;;-142.70;100.00;60390.16;6205320;23;20005;-77
2021/03/24 11:01:30;;;;;;;2.45;0.80;;;;;;;-142.70;100.00;60390.16;6204472;23;20008;-79
2021/03/24 11:04:49;;;;;;;1.77;0.95;;;;;;;2.53;64.44;94604.53;6205583;23;20023;-78
2021/03/24 11:08:39;;;;;;;1.77;0.93;;;;;;;-142.70;100.00;60390.16;6193805;23;20076;-78
2021/03/24 11:11:36;;;;;;;1.13;0.98;;;;;;;3.83;50.66;94686.84;6207172;23;20008;-77
2021/03/24 11:14:05;;;;;;;3.08;0.75;;;;;;;3.12;51.68;94696.53;6204340;23;20008;-77
2021/03/24 11:17:00;;;;;;;0.82;0.73;;;;;;;4.01;50.94;94690.34;6180951;23;20399;-77
2021/03/24 11:20:44;;;;;;;1.02;0.85;;;;;;;-142.70;100.00;60390.16;6230176;23;20060;-77
2021/03/24 11:24:27;;;;;;;2.35;1.00;;;;;;;-142.70;100.00;60390.16;6205993;23;20008;-77
2021/03/24 11:28:03;;;;;;;1.60;1.05;;;;;;;-142.70;100.00;60390.16;6193825;23;20017;-78
2021/03/24 11:31:43;;;;;;;0.60;0.60;;;;;;;-142.70;100.00;60390.16;6204882;23;20004;-76
2021/03/24 11:35:17;;;;;;;;;;;;;;;-142.70;100.00;60390.16;6207128;23;20422;-76
2021/03/24 11:38:47;;;;;;;3.35;0.98;;;;;;;-142.70;100.00;60390.16;6204003;23;19908;-77
2021/03/24 11:42:22;;;;;;;1.48;0.60;;;;;;;-142.70;100.00;60390.16;6204814;23;20004;-76
2021/03/24 11:45:47;;;;;;;0.40;0.40;;;;;;;-142.70;100.00;60390.16;6217812;23;20089;-77
2021/03/24 11:49:30;;;;;;;1.27;0.80;;;;;;;-142.70;100.00;60390.16;6217056;23;20034;-77
2021/03/24 11:53:17;;;;;;;0.82;0.70;;;;;;;-142.70;100.00;60390.16;6204747;23;20451;-76
2021/03/24 11:57:03;;;;;;;0.90;0.82;;;;;;;-142.70;100.00;60390.16;6206489;23;20004;-76
2021/03/24 12:01:04;;;;;;;0.75;0.75;;;;;;;-142.70;100.00;60390.16;6207382;23;20035;-76
2021/03/24 12:04:36;;;;;;;0.90;0.70;;;;;;;-142.70;100.00;60390.16;6204802;23;20023;-76
2021/03/24 12:08:09;;;;;;;0.93;0.65;;;;;;;-142.70;100.00;60390.16;6205779;23;20094;-76
2021/03/24 12:11:39;;;;;;;0.90;0.70;;;;;;;-142.70;100.00;60390.16;6206059;23;20001;-76
2021/03/24 12:15:19;;;;;;;1.15;0.82;;;;;;;-142.70;100.00;60390.16;6205507;23;20012;-74
2021/03/24 12:18:44;;;;;;;1.00;0.82;;;;;;;-142.70;100.00;60390.16;6207906;23;20001;-77
2021/03/24 12:22:20;;;;;;;1.23;0.75;;;;;;;-142.70;100.00;60390.16;6218691;23;20106;-76
2021/03/24 12:25:51;;;;;;;2.78;0.93;;;;;;;-142.70;100.00;60390.16;6207239;23;20009;-76
2021/03/24 12:29:16;;;;;;;;;;;;;;;-142.70;100.00;60390.16;6195057;23;20005;-75
2021/03/24 12:32:47;;;;;;;1.13;0.75;;;;;;;-142.70;100.00;60390.16;6206485;23;19916;-76
2021/03/24 12:36:21;;;;;;;0.75;0.60;;;;;;;-142.70;100.00;60390.16;6193412;23;20013;-76
2021/03/24 12:40:23;;;;;;;1.30;0.93;;;;;;;-142.70;100.00;60390.16;6219952;23;20505;-76
2021/03/24 12:43:50;;;;;;;0.60;0.47;;;;;;;-142.70;100.00;60390.16;6207311;23;20389;-75
2021/03/24 12:47:27;;;;;;;1.27;0.80;;;;;;;-142.70;100.00;60390.16;6218650;23;20015;-76
2021/03/24 12:51:20;;;;;;;0.77;0.60;;;;;;;-142.70;100.00;60390.16;6207140;23;20008;-74
2021/03/24 12:54:49;;;;;;;1.48;0.75;;;;;;;-142.70;100.00;60390.16;6208770;23;20016;-74
2021/03/24 12:58:28;;;;;;;1.70;1.10;;;;;;;-142.70;100.00;60390.16;6218404;23;20008;-76
2021/03/24 13:02:34;;;;;;;3.75;1.02;;;;;;;-142.70;100.00;60390.16;6205106;23;20071;-77
2021/03/24 13:06:14;;;;;;;2.53;1.25;;;;;;;-142.70;100.00;60390.16;6206630;23;20062;-76
2021/03/24 13:09:43;;;;;;;2.38;1.08;;;;;;;-142.70;100.00;60390.16;6199185;23;20004;-74
2021/03/24 13:13:14;;;;;;;2.40;1.80;;;;;;;-142.70;100.00;60390.16;6206923;23;20008;-75
2021/03/24 13:16:47;;;;;;;6.05;4.63;;;;;;;-142.70;100.00;60390.16;6206539;23;20015;-75
2021/03/24 13:20:50;;;;;;;2.45;1.45;;;;;;;-142.70;100.00;60390.16;6179410;23;20437;-75
2021/03/24 13:24:33;;;;;;;1.42;1.02;;;;;;;-142.70;100.00;60390.16;6206789;23;20028;-77
2021/03/24 13:28:39;;;;;;;3.92;1.17;;;;;;;-142.70;100.00;60390.16;6206375;23;20066;-75
2021/03/24 13:32:41;;;;;;;4.28;1.35;;;;;;;-142.70;100.00;60390.16;6207052;23;20353;-76
2021/03/24 13:36:19;;;;;;;5.72;1.33;;;;;;;-142.70;100.00;60390.16;6134661;23;20015;-75
2021/03/24 13:40:04;;;;;;;1.77;1.38;;;;;;;-142.70;100.00;60390.16;6206042;23;20005;-75
2021/03/24 13:43:59;;;;;;;1.92;1.23;;;;;;;-142.70;100.00;60390.16;6180774;23;20096;-76
2021/03/24 13:47:33;;;;;;;1.95;1.17;;;;;;;-142.70;100.00;60390.16;6221468;23;20537;-77
2021/03/24 13:51:17;;;;;;;1.30;0.80;;;;;;;-142.70;100.00;60390.16;6217490;23;20074;-77
2021/03/24 13:54:43;;;;;;;1.73;1.10;;;;;;;-142.70;100.00;60390.16;6221681;23;20005;-77
2021/03/24 13:58:29;;;;;;;2.60;1.45;;;;;;;-142.70;100.00;60390.16;6205066;23;20470;-78
2021/03/24 14:01:54;;;;;;;1.38;1.02;;;;;;;-142.70;100.00;60390.16;6206383;23;20052;-77
2021/03/24 14:05:35;;;;;;;1.55;0.90;;;;;;;-142.70;100.00;60390.16;6206032;23;20008;-77
2021/03/24 14:09:02;;;;;;;1.40;1.00;;;;;;;-142.70;100.00;60390.16;6218318;23;20427;-75
2021/03/24 14:12:45;;;;;;;1.60;1.17;;;;;;;-142.70;100.00;60390.16;6204430;23;20004;-75
2021/03/24 14:16:40;;;;;;;3.05;1.35;;;;;;;-142.70;100.00;60390.16;6206528;23;20005;-74
2021/03/24 14:20:19;;;;;;;1.45;1.17;;;;;;;-142.70;100.00;60390.16;6180162;23;20013;-77
2021/03/24 14:24:07;;;;;;;1.15;0.70;;;;;;;-142.70;100.00;60390.16;6207303;23;20360;-77
2021/03/24 14:27:38;;;;;;;1.40;0.80;;;;;;;-142.70;100.00;60390.16;6180582;23;20319;-75
2021/03/24 14:31:15;;;;;;;0.70;0.60;;;;;;;-142.70;100.00;60390.16;6192966;23;20427;-74
2021/03/24 14:35:01;;;;;;;1.35;0.68;;;;;;;-142.70;100.00;60390.16;6206340;23;20031;-76
2021/03/24 14:38:43;;;;;;;0.90;0.60;;;;;;;-142.70;100.00;60390.16;6206033;23;20366;-77
2021/03/24 14:42:30;;;;;;;0.65;0.50;;;;;;;-142.70;100.00;60390.16;6205730;23;20004;-74
2021/03/24 14:45:54;;;;;;;2.15;0.80;;;;;;;-142.70;100.00;60390.16;6205608;23;20028;-75
2021/03/24 14:49:41;;;;;;;1.02;0.90;;;;;;;-142.70;100.00;60390.16;6205399;23;20362;-75
2021/03/24 14:53:07;;;;;;;2.25;1.30;;;;;;;-142.70;100.00;60390.16;6219368;23;20522;-80
2021/03/24 14:57:03;;;;;;;1.27;0.93;;;;;;;-142.70;100.00;60390.16;6205976;23;20001;-77
2021/03/24 15:00:29;;;;;;;0.80;0.55;;;;;;;-142.70;100.00;60390.16;6197684;23;20617;-77
2021/03/24 15:04:11;;;;;;;1.02;0.60;;;;;;;-142.70;100.00;60390.16;6191754;23;20009;-77
2021/03/24 15:07:42;;;;;;;0.60;0.47;;;;;;;-142.70;100.00;60390.16;6205288;23;20008;-78
2021/03/24 15:11:06;;;;;;;;;;;;;;;-142.70;100.00;60390.16;6218449;23;20001;-78
2021/03/24 15:14:41;;;;;;;2.10;0.60;;;;;;;-142.70;100.00;60390.16;6206424;23;20344;-75
2021/03/24 15:18:59;;;;;;;1.75;0.70;;;;;;;-142.70;100.00;60390.16;6192652;23;20328;-75
2021/03/24 15:22:35;;;;;;;0.80;0.60;;;;;;;-142.70;100.00;60390.16;6201187;23;20012;-75
2021/03/24 15:26:05;;;;;;;1.65;0.80;;;;;;;-142.70;100.00;60390.16;6179763;23;20095;-74
2021/03/24 15:29:32;;;;;;;1.00;0.75;;;;;;;-142.70;100.00;60390.16;6204415;23;20009;-75
2021/03/24 15:33:14;;;;;;;1.70;1.10;;;;;;;-142.70;100.00;60390.16;6205978;23;20004;-75
2021/03/24 15:36:50;;;;;;;1.35;1.13;;;;;;;-142.70;100.00;60390.16;6206147;23;20020;-75
2021/03/24 15:40:22;;;;;;;2.25;1.42;;;;;;;-142.70;100.00;60390.16;6217376;23;20000;-75
2021/03/24 15:44:11;;;;;;;2.58;1.17;;;;;;;-142.70;100.00;60390.16;6204871;23;20032;-75
2021/03/24 15:47:37;;;;;;;1.50;1.00;;;;;;;-142.70;100.00;60390.16;6205436;23;20076;-75
2021/03/24 15:51:25;;;;;;;1.38;0.95;;;;;;;-142.70;100.00;60390.16;6217053;23;20355;-75
2021/03/24 15:54:56;;;;;;;1.65;1.15;;;;;;;-142.70;100.00;60390.16;6207852;23;20059;-75
2021/03/24 15:58:32;;;;;;;1.65;1.10;;;;;;;-142.70;100.00;60390.16;6207514;23;20096;-75
2021/03/24 16:02:23;;;;;;;1.92;1.05;;;;;;;-142.70;100.00;60390.16;6208143;23;20008;-75
2021/03/24 16:06:09;;;;;;;2.38;0.95;;;;;;;-142.70;100.00;60390.16;6207507;23;20087;-75
2021/03/24 16:09:33;;;;;;;1.80;1.13;;;;;;;-142.70;100.00;60390.16;6208380;23;20370;-75
2021/03/24 16:13:15;;;;;;;1.67;1.05;;;;;;;-142.70;100.00;60390.16;6207668;23;20000;-75
2021/03/24 16:16:46;;;;;;;2.97;1.75;;;;;;;-142.70;100.00;60390.16;6205921;23;20015;-75
2021/03/24 16:20:19;;;;;;;3.22;2.60;;;;;;;-142.70;100.00;60390.16;6219908;23;20373;-75
2021/03/24 16:24:01;;;;;;;2.60;1.98;;;;;;;-142.70;100.00;60390.16;6219488;23;20000;-75
2021/03/24 16:27:40;;;;;;;2.80;2.40;;;;;;;-142.70;100.00;60390.16;6207813;23;20009;-75
2021/03/24 16:31:17;;;;;;;1.95;1.65;;;;;;;-142.70;100.00;60390.16;6205994;23;20084;-75
2021/03/24 16:34:41;;;;;;;2.53;2.13;;;;;;;-142.70;100.00;60390.16;6219790;23;20000;-75
2021/03/24 16:38:49;;;;;;;2.40;1.70;;;;;;;-142.70;100.00;60390.16;6208216;23;20001;-75
2021/03/24 16:42:38;;;;;;;3.47;1.83;;;;;;;-142.70;100.00;60390.16;6206789;23;20009;-75
2021/03/24 16:46:39;;;;;;;3.17;2.45;;;;;;;-142.70;100.00;60390.16;6206353;23;20016;-75
2021/03/24 16:50:42;;;;;;;4.82;3.88;;;;;;;-142.70;100.00;60390.16;6207094;23;20020;-78
2021/03/24 16:54:30;;;;;;;18.90;9.25;;;;;;;-142.70;100.00;60390.16;6206459;23;20009;-77
2021/03/24 16:58:20;;;;;;;36.47;15.82;;;;;;;-142.70;100.00;60390.16;6206129;23;20504;-75
2021/03/24 17:01:56;;;;;;;3.43;1.50;;;;;;;-142.70;100.00;60390.16;6206722;23;20067;-74
2021/03/24 17:05:33;;;;;;;3.13;1.50;;;;;;;-142.70;100.00;60390.16;6207148;23;20227;-75
2021/03/24 17:09:02;;;;;;;3.20;1.40;;;;;;;-142.70;100.00;60390.16;6218180;23;20004;-75
2021/03/24 17:12:29;;;;;;;1.77;1.60;;;;;;;-142.70;100.00;60390.16;6215827;23;20024;-74
2021/03/24 17:16:01;;;;;;;1.50;1.30;;;;;;;-142.70;100.00;60390.16;6207368;23;20005;-74
2021/03/24 17:19:37;;;;;;;2.13;1.50;;;;;;;-142.70;100.00;60390.16;6208034;23;20004;-74
2021/03/24 17:23:18;;;;;;;16.65;9.93;;;;;;;-142.70;100.00;60390.16;6206978;23;20000;-76
2021/03/24 17:26:43;;;;;;;24.63;13.30;;;;;;;-142.70;100.00;60390.16;6206258;23;20001;-74
2021/03/24 17:30:25;;;;;;;9.20;5.50;;;;;;;-142.70;100.00;60390.16;6192965;23;20336;-74
2021/03/24 17:33:52;;;;;;;8.45;6.47;;;;;;;-142.70;100.00;60390.16;6205853;23;20012;-75
2021/03/24 17:37:45;;;;;;;8.85;7.80;;;;;;;-142.70;100.00;60390.16;6207375;23;20013;-75
2021/03/24 17:41:15;;;;;;;8.55;6.95;;;;;;;-142.70;100.00;60390.16;6205645;23;20076;-75
2021/03/24 17:44:50;;;;;;;36.33;23.92;;;;;;;-142.70;100.00;60390.16;6205744;23;20087;-75
2021/03/24 17:48:22;;;;;;;14.45;10.82;;;;;;;-142.70;100.00;60390.16;6193092;23;20489;-74
2021/03/24 17:51:53;;;;;;;11.02;9.93;;;;;;;-142.70;100.00;60390.16;6205721;23;20032;-74
2021/03/24 17:55:48;;;;;;;8.20;7.40;;;;;;;-142.70;100.00;60390.16;6202310;23;20450;-75
2021/03/24 17:59:49;;;;;;;2.38;1.95;;;;;;;-142.70;100.00;60390.16;6204947;23;20004;-74
2021/03/24 18:03:31;;;;;;;2.60;2.40;;;;;;;-142.70;100.00;60390.16;6196643;23;20020;-74
2021/03/24 18:06:55;;;;;;;3.13;2.42;;;;;;;-142.70;100.00;60390.16;6205759;23;20450;-75
2021/03/24 18:10:26;;;;;;;5.10;4.70;;;;;;;-142.70;100.00;60390.16;6206599;23;20450;-74
2021/03/24 18:13:57;;;;;;;9.35;8.60;;;;;;;-142.70;100.00;60390.16;6205903;23;20361;-75
2021/03/24 18:17:41;;;;;;;5.45;4.70;;;;;;;-142.70;100.00;60390.16;6206728;23;20081;-75
2021/03/24 18:21:13;;;;;;;6.13;5.53;;;;;;;-142.70;100.00;60390.16;6205297;23;20473;-75
2021/03/24 18:24:40;;;;;;;10.52;5.10;;;;;;;-142.70;100.00;60390.16;6216439;23;20032;-75
2021/03/24 18:28:08;;;;;;;5.75;5.20;;;;;;;-142.70;100.00;60390.16;6204407;23;20087;-75
2021/03/24 18:31:36;;;;;;;4.13;3.80;;;;;;;-142.70;100.00;60390.16;6192982;23;20346;-75
2021/03/24 18:35:05;;;;;;;19.25;11.75;;;;;;;-142.70;100.00;60390.16;6191494;23;20012;-75
2021/03/24 18:38:29;;;;;;;4.10;3.70;;;;;;;-142.70;100.00;60390.16;6193468;23;20087;-75
2021/03/24 18:41:53;;;;;;;5.40;4.90;;;;;;;-142.70;100.00;60390.16;6192501;23;20012;-75
2021/03/24 18:45:21;;;;;;;12.32;8.38;;;;;;;-142.70;100.00;60390.16;6204794;23;20058;-75
2021/03/24 18:48:46;;;;;;;28.70;16.00;;;;;;;-142.70;100.00;60390.16;6205162;23;20012;-75
2021/03/24 18:52:27;;;;;;;17.55;9.63;;;;;;;-142.70;100.00;60390.16;6191829;23;19997;-75
2021/03/24 18:56:11;;;;;;;8.13;6.15;;;;;;;-142.70;100.00;60390.16;6207039;23;20355;-75
2021/03/24 18:59:40;;;;;;;9.38;6.57;;;;;;;-142.70;100.00;60390.16;6206620;23;20027;-75
2021/03/24 19:03:18;;;;;;;16.42;9.30;;;;;;;-142.70;100.00;60390.16;6191233;23;20016;-75
2021/03/24 19:06:46;;;;;;;14.70;9.15;;;;;;;-142.70;100.00;60390.16;6180410;23;20013;-75
2021/03/24 19:10:29;;;;;;;5.97;3.90;;;;;;;-142.70;100.00;60390.16;6204764;23;20108;-75
2021/03/24 19:13:59;;;;;;;6.18;3.60;;;;;;;-142.70;100.00;60390.16;6216945;23;20005;-77
2021/03/24 19:17:29;;;;;;;4.43;3.63;;;;;;;-142.70;100.00;60390.16;6189228;23;20833;-77
2021/03/24 19:21:05;;;;;;;11.95;6.28;;;;;;;-142.70;100.00;60390.16;6206225;23;20000;-77
2021/03/24 19:24:30;;;;;;;24.58;12.00;;;;;;;-142.70;100.00;60390.16;6207052;23;20071;-75
2021/03/24 19:28:01;;;;;;;10.63;6.25;;;;;;;-142.70;100.00;60390.16;6192072;23;20423;-77
2021/03/24 19:31:32;;;;;;;7.28;5.07;;;;;;;-142.70;100.00;60390.16;6203481;23;20024;-76
2021/03/24 19:35:05;;;;;;;4.93;3.97;;;;;;;-142.70;100.00;60390.16;6216855;23;20005;-76
2021/03/24 19:38:30;;;;;;;8.45;4.70;;;;;;;-142.70;100.00;60390.16;6194275;23;20031;-75
2021/03/24 19:42:15;;;;;;;22.42;11.52;;;;;;;-142.70;100.00;60390.16;6192048;23;20047;-75
2021/03/24 19:45:39;;;;;;;7.75;5.30;;;;;;;-142.70;100.00;60390.16;6204089;23;20403;-75
2021/03/24 19:49:26;;;;;;;4.57;3.97;;;;;;;-142.70;100.00;60390.16;6216537;23;20000;-76
2021/03/24 19:52:51;;;;;;;9.43;6.32;;;;;;;-142.70;100.00;60390.16;6192222;23;20030;-75
2021/03/24 19:56:39;;;;;;;12.82;6.47;;;;;;;-142.70;100.00;60390.16;6205234;23;20008;-75
2021/03/24 20:00:25;;;;;;;3.35;2.58;;;;;;;-142.70;100.00;60390.16;6194064;23;20009;-75
2021/03/24 20:04:11;;;;;;;2.88;2.08;;;;;;;-142.70;100.00;60390.16;6139641;23;20013;-75
2021/03/24 20:07:43;;;;;;;3.25;2.33;;;;;;;-142.70;100.00;60390.16;6150695;23;20017;-77
2021/03/24 20:11:11;;;;;;;4.93;2.03;;;;;;;-142.70;100.00;60390.16;6136297;23;20470;-75
2021/03/24 20:14:39;;;;;;;4.85;2.22;;;;;;;-142.70;100.00;60390.16;6125177;23;20091;-75
2021/03/24 20:18:25;;;;;;;3.33;2.30;;;;;;;-142.70;100.00;60390.16;6150869;23;20028;-75
2021/03/24 20:21:50;;;;;;;4.63;2.78;;;;;;;-142.70;100.00;60390.16;6149690;23;20039;-76
2021/03/24 20:25:19;;;;;;;6.13;4.70;;;;;;;-142.70;100.00;60390.16;6149513;23;20079;-75
2021/03/24 20:28:43;;;;;;;8.70;6.63;;;;;;;-142.70;100.00;60390.16;6149913;23;20453;-76
2021/03/24 20:32:07;;;;;;;7.05;5.03;;;;;;;-142.70;100.00;60390.16;6149588;23;20756;-75
2021/03/24 20:36:07;;;;;;;7.35;5.35;;;;;;;-142.70;100.00;60390.16;6162702;23;20029;-75
2021/03/24 20:39:52;;;;;;;9.63;8.07;;;;;;;-142.70;100.00;60390.16;6168076;23;20012;-75
2021/03/24 20:43:30;;;;;;;18.33;11.73;;;;;;;-142.70;100.00;60390.16;6116216;23;20004;-75
2021/03/24 20:46:54;;;;;;;11.02;7.80;;;;;;;-142.70;100.00;60390.16;6116057;23;20012;-75
2021/03/24 20:50:29;;;;;;;10.52;9.43;;;;;;;-142.70;100.00;60390.16;6138153;23;20043;-75
2021/03/24 20:53:54;;;;;;;10.02;7.97;;;;;;;-142.70;100.00;60390.16;6164526;23;20005;-75
2021/03/24 20:57:20;;;;;;;14.32;11.35;;;;;;;-142.70;100.00;60390.16;6138700;23;20016;-75
2021/03/24 21:00:44;;;;;;;12.75;10.15;;;;;;;-142.70;100.00;60390.16;6151024;23;20027;-75
2021/03/24 21:04:11;;;;;;;24.63;16.02;;;;;;;-142.70;100.00;60390.16;6151323;23;20088;-75
2021/03/24 21:07:35;;;;;;;12.15;7.82;;;;;;;-142.70;100.00;60390.16;6139868;23;20078;-75
2021/03/24 21:11:00;;;;;;;27.17;12.98;;;;;;;-142.70;100.00;60390.16;6150781;23;20012;-75
2021/03/24 21:14:24;;;;;;;20.88;9.82;;;;;;;-142.70;100.00;60390.16;6138103;23;20085;-75
2021/03/24 21:17:48;;;;;;;14.60;8.52;;;;;;;-142.70;100.00;60390.16;6127465;23;20092;-75
2021/03/24 21:21:18;;;;;;;14.60;8.02;;;;;;;-142.70;100.00;60390.16;6137453;23;20005;-76
2021/03/24 21:24:42;;;;;;;6.50;4.93;;;;;;;-142.70;100.00;60390.16;6163365;23;20009;-75